sensor_id;sensor_type;location;lat;lon;timestamp;temperature;humidity
2112;DHT22;1062;52.538;13.400;2024-01-27T00:01:48;5.50;99.90
2112;DHT22;1062;52.538;13.400;2024-01-27T00:04:14;5.60;99.90
2112;DHT22;1062;52.538;13.400;2024-01-27T00:06:39;5.50;99.90
2112;DHT22;1062;52.538;13.400;2024-01-27T00:09:05;5.50;99.90
2112;DHT22;1062;52.538;13.400;2024-01-27T00:11:31;5.50;99.90
2112;DHT22;1062;52.538;13.400;2024-01-27T00:13:58;5.50;99.90
2112;DHT22;1062;52.538;13.400;2024-01-27T00:16:24;5.40;99.90
2112;DHT22;1062;52.538;13.400;2024-01-27T00:18:50;5.40;99.90
2112;DHT22;1062;52.538;13.400;2024-01-27T00:21:16;5.30;99.90
2112;DHT22;1062;52.538;13.400;2024-01-27T00:23:41;5.30;99.90
2112;DHT22;1062;52.538;13.400;2024-01-27T00:26:07;5.20;99.90
2112;DHT22;1062;52.538;13.400;2024-01-27T00:28:33;5.30;99.90
2112;DHT22;1062;52.538;13.400;2024-01-27T00:30:58;5.20;99.90
2112;DHT22;1062;52.538;13.400;2024-01-27T00:33:24;5.20;99.90
2112;DHT22;1062;52.538;13.400;2024-01-27T00:35:50;5.20;99.90
2112;DHT22;1062;52.538;13.400;2024-01-27T00:38:16;5.20;99.90
2112;DHT22;1062;52.538;13.400;2024-01-27T00:40:42;5.10;99.90
2112;DHT22;1062;52.538;13.400;2024-01-27T00:43:07;5.10;99.90
2112;DHT22;1062;52.538;13.400;2024-01-27T00:45:33;5.20;99.90
2112;DHT22;1062;52.538;13.400;2024-01-27T00:47:59;5.20;99.90
2112;DHT22;1062;52.538;13.400;2024-01-27T00:50:24;5.10;99.90
2112;DHT22;1062;52.538;13.400;2024-01-27T00:52:50;5.20;99.90
2112;DHT22;1062;52.538;13.400;2024-01-27T00:55:15;5.20;99.90
2112;DHT22;1062;52.538;13.400;2024-01-27T00:57:42;5.30;99.90
2112;DHT22;1062;52.538;13.400;2024-01-27T01:00:09;5.20;99.90
2112;DHT22;1062;52.538;13.400;2024-01-27T01:02:37;5.20;99.90
2112;DHT22;1062;52.538;13.400;2024-01-27T01:05:04;5.30;99.90
2112;DHT22;1062;52.538;13.400;2024-01-27T01:07:30;5.30;99.90
2112;DHT22;1062;52.538;13.400;2024-01-27T01:09:56;5.30;99.90
2112;DHT22;1062;52.538;13.400;2024-01-27T01:12:22;5.30;99.90
2112;DHT22;1062;52.538;13.400;2024-01-27T01:14:48;5.30;99.90
2112;DHT22;1062;52.538;13.400;2024-01-27T01:17:13;5.30;99.90
2112;DHT22;1062;52.538;13.400;2024-01-27T01:19:40;5.30;99.90
2112;DHT22;1062;52.538;13.400;2024-01-27T01:22:06;5.40;99.90
2112;DHT22;1062;52.538;13.400;2024-01-27T01:24:32;5.40;99.90
2112;DHT22;1062;52.538;13.400;2024-01-27T01:26:58;5.40;99.90
2112;DHT22;1062;52.538;13.400;2024-01-27T01:29:24;5.30;99.90
2112;DHT22;1062;52.538;13.400;2024-01-27T01:31:50;5.30;99.90
2112;DHT22;1062;52.538;13.400;2024-01-27T01:34:15;5.30;99.90
2112;DHT22;1062;52.538;13.400;2024-01-27T01:36:41;5.20;99.90
2112;DHT22;1062;52.538;13.400;2024-01-27T01:39:07;5.20;99.90
2112;DHT22;1062;52.538;13.400;2024-01-27T01:41:33;5.20;99.90
2112;DHT22;1062;52.538;13.400;2024-01-27T01:43:59;5.20;99.90
2112;DHT22;1062;52.538;13.400;2024-01-27T01:46:24;5.20;99.90
2112;DHT22;1062;52.538;13.400;2024-01-27T01:48:50;5.20;99.90
2112;DHT22;1062;52.538;13.400;2024-01-27T01:51:16;5.20;99.90
2112;DHT22;1062;52.538;13.400;2024-01-27T01:53:42;5.20;99.90
2112;DHT22;1062;52.538;13.400;2024-01-27T01:56:08;5.20;99.90
2112;DHT22;1062;52.538;13.400;2024-01-27T01:58:34;5.10;99.90
2112;DHT22;1062;52.538;13.400;2024-01-27T02:01:00;5.00;99.90
2112;DHT22;1062;52.538;13.400;2024-01-27T02:03:26;5.00;99.90
2112;DHT22;1062;52.538;13.400;2024-01-27T02:05:51;5.00;99.90
2112;DHT22;1062;52.538;13.400;2024-01-27T02:11:39;5.10;99.90
2112;DHT22;1062;52.538;13.400;2024-01-27T02:14:06;5.20;99.90
2112;DHT22;1062;52.538;13.400;2024-01-27T02:16:32;5.20;99.90
2112;DHT22;1062;52.538;13.400;2024-01-27T02:18:57;5.20;99.90
2112;DHT22;1062;52.538;13.400;2024-01-27T02:21:23;5.20;99.90
2112;DHT22;1062;52.538;13.400;2024-01-27T02:23:48;5.20;99.90
2112;DHT22;1062;52.538;13.400;2024-01-27T02:26:14;5.20;99.90
2112;DHT22;1062;52.538;13.400;2024-01-27T02:28:39;5.20;99.90
2112;DHT22;1062;52.538;13.400;2024-01-27T02:31:05;5.20;99.90
2112;DHT22;1062;52.538;13.400;2024-01-27T02:33:31;5.20;99.90
2112;DHT22;1062;52.538;13.400;2024-01-27T02:35:56;5.20;99.90
2112;DHT22;1062;52.538;13.400;2024-01-27T02:38:22;5.30;99.90
2112;DHT22;1062;52.538;13.400;2024-01-27T02:40:47;5.20;99.90
2112;DHT22;1062;52.538;13.400;2024-01-27T02:43:13;5.20;99.90
2112;DHT22;1062;52.538;13.400;2024-01-27T02:45:38;5.20;99.90
2112;DHT22;1062;52.538;13.400;2024-01-27T02:48:04;5.20;99.90
2112;DHT22;1062;52.538;13.400;2024-01-27T02:50:30;5.30;99.90
2112;DHT22;1062;52.538;13.400;2024-01-27T02:52:56;5.30;99.90
2112;DHT22;1062;52.538;13.400;2024-01-27T02:55:21;5.20;99.90
2112;DHT22;1062;52.538;13.400;2024-01-27T02:57:47;5.20;99.90
2112;DHT22;1062;52.538;13.400;2024-01-27T03:00:12;5.20;99.90
2112;DHT22;1062;52.538;13.400;2024-01-27T03:02:38;5.30;99.90
2112;DHT22;1062;52.538;13.400;2024-01-27T03:05:04;5.20;99.90
2112;DHT22;1062;52.538;13.400;2024-01-27T03:07:30;5.20;99.90
2112;DHT22;1062;52.538;13.400;2024-01-27T03:09:56;5.20;99.90
2112;DHT22;1062;52.538;13.400;2024-01-27T03:12:21;5.20;99.90
2112;DHT22;1062;52.538;13.400;2024-01-27T03:14:48;5.20;99.90
2112;DHT22;1062;52.538;13.400;2024-01-27T03:17:15;5.20;99.90
2112;DHT22;1062;52.538;13.400;2024-01-27T03:19:41;5.20;99.90
2112;DHT22;1062;52.538;13.400;2024-01-27T03:22:06;5.10;99.90
2112;DHT22;1062;52.538;13.400;2024-01-27T03:24:32;5.10;99.90
2112;DHT22;1062;52.538;13.400;2024-01-27T03:26:57;5.00;99.90
2112;DHT22;1062;52.538;13.400;2024-01-27T03:29:23;5.00;99.90
2112;DHT22;1062;52.538;13.400;2024-01-27T03:31:49;5.00;99.90
2112;DHT22;1062;52.538;13.400;2024-01-27T03:34:14;4.90;99.90
2112;DHT22;1062;52.538;13.400;2024-01-27T03:36:40;4.80;99.90
2112;DHT22;1062;52.538;13.400;2024-01-27T03:39:06;4.80;99.90
2112;DHT22;1062;52.538;13.400;2024-01-27T03:41:32;4.80;99.90
2112;DHT22;1062;52.538;13.400;2024-01-27T03:43:58;4.80;99.90
2112;DHT22;1062;52.538;13.400;2024-01-27T03:46:23;4.70;99.90
2112;DHT22;1062;52.538;13.400;2024-01-27T03:48:49;4.60;99.90
2112;DHT22;1062;52.538;13.400;2024-01-27T03:51:15;4.50;99.90
2112;DHT22;1062;52.538;13.400;2024-01-27T03:53:40;4.50;99.90
2112;DHT22;1062;52.538;13.400;2024-01-27T03:56:06;4.40;99.90
2112;DHT22;1062;52.538;13.400;2024-01-27T03:58:32;4.40;99.90
2112;DHT22;1062;52.538;13.400;2024-01-27T04:00:58;4.30;99.90
2112;DHT22;1062;52.538;13.400;2024-01-27T04:03:24;4.30;99.90
2112;DHT22;1062;52.538;13.400;2024-01-27T04:05:49;4.30;99.90
2112;DHT22;1062;52.538;13.400;2024-01-27T04:08:15;4.30;99.90
2112;DHT22;1062;52.538;13.400;2024-01-27T04:10:41;4.20;99.90
2112;DHT22;1062;52.538;13.400;2024-01-27T04:13:07;4.20;99.90
2112;DHT22;1062;52.538;13.400;2024-01-27T04:15:35;4.20;99.90
2112;DHT22;1062;52.538;13.400;2024-01-27T04:18:04;4.20;99.90
2112;DHT22;1062;52.538;13.400;2024-01-27T04:20:30;4.20;99.90
2112;DHT22;1062;52.538;13.400;2024-01-27T04:22:56;4.20;99.90
2112;DHT22;1062;52.538;13.400;2024-01-27T04:25:21;4.30;99.90
2112;DHT22;1062;52.538;13.400;2024-01-27T04:27:47;4.20;99.90
2112;DHT22;1062;52.538;13.400;2024-01-27T04:30:12;4.20;99.90
2112;DHT22;1062;52.538;13.400;2024-01-27T04:32:38;4.20;99.90
2112;DHT22;1062;52.538;13.400;2024-01-27T04:35:04;4.20;99.90
2112;DHT22;1062;52.538;13.400;2024-01-27T04:37:33;4.20;99.90
2112;DHT22;1062;52.538;13.400;2024-01-27T04:39:59;4.30;99.90
2112;DHT22;1062;52.538;13.400;2024-01-27T04:42:24;4.40;99.90
2112;DHT22;1062;52.538;13.400;2024-01-27T04:44:50;4.40;99.90
2112;DHT22;1062;52.538;13.400;2024-01-27T04:47:16;4.50;99.90
2112;DHT22;1062;52.538;13.400;2024-01-27T04:49:42;4.50;99.90
2112;DHT22;1062;52.538;13.400;2024-01-27T04:52:07;4.60;99.90
2112;DHT22;1062;52.538;13.400;2024-01-27T04:54:33;4.60;99.90
2112;DHT22;1062;52.538;13.400;2024-01-27T04:56:59;4.60;99.90
2112;DHT22;1062;52.538;13.400;2024-01-27T04:59:24;4.70;99.90
2112;DHT22;1062;52.538;13.400;2024-01-27T05:01:50;4.70;99.90
2112;DHT22;1062;52.538;13.400;2024-01-27T05:04:16;4.70;99.90
2112;DHT22;1062;52.538;13.400;2024-01-27T05:06:45;4.70;99.90
2112;DHT22;1062;52.538;13.400;2024-01-27T05:09:10;4.70;99.90
2112;DHT22;1062;52.538;13.400;2024-01-27T05:11:37;4.80;99.90
2112;DHT22;1062;52.538;13.400;2024-01-27T05:14:03;4.70;99.90
2112;DHT22;1062;52.538;13.400;2024-01-27T05:16:28;4.80;99.90
2112;DHT22;1062;52.538;13.400;2024-01-27T05:18:54;4.80;99.90
2112;DHT22;1062;52.538;13.400;2024-01-27T05:21:20;4.80;99.90
2112;DHT22;1062;52.538;13.400;2024-01-27T05:23:46;4.70;99.90
2112;DHT22;1062;52.538;13.400;2024-01-27T05:26:11;4.70;99.90
2112;DHT22;1062;52.538;13.400;2024-01-27T05:28:37;4.70;99.90
2112;DHT22;1062;52.538;13.400;2024-01-27T05:31:07;4.70;99.90
2112;DHT22;1062;52.538;13.400;2024-01-27T05:33:34;4.70;99.90
2112;DHT22;1062;52.538;13.400;2024-01-27T05:35:59;4.70;99.90
2112;DHT22;1062;52.538;13.400;2024-01-27T05:38:25;4.70;99.90
2112;DHT22;1062;52.538;13.400;2024-01-27T05:40:51;4.70;99.90
2112;DHT22;1062;52.538;13.400;2024-01-27T05:43:17;4.70;99.90
2112;DHT22;1062;52.538;13.400;2024-01-27T05:45:43;4.70;99.90
2112;DHT22;1062;52.538;13.400;2024-01-27T05:48:10;4.70;99.90
2112;DHT22;1062;52.538;13.400;2024-01-27T05:50:36;4.70;99.90
2112;DHT22;1062;52.538;13.400;2024-01-27T05:53:01;4.70;99.90
2112;DHT22;1062;52.538;13.400;2024-01-27T05:55:27;4.70;99.90
2112;DHT22;1062;52.538;13.400;2024-01-27T05:57:52;4.80;99.90
2112;DHT22;1062;52.538;13.400;2024-01-27T06:00:18;4.80;99.90
2112;DHT22;1062;52.538;13.400;2024-01-27T06:02:44;4.80;99.90
2112;DHT22;1062;52.538;13.400;2024-01-27T06:05:09;4.90;99.90
2112;DHT22;1062;52.538;13.400;2024-01-27T06:07:38;4.90;99.90
2112;DHT22;1062;52.538;13.400;2024-01-27T06:10:04;4.90;99.90
2112;DHT22;1062;52.538;13.400;2024-01-27T06:12:32;4.90;99.90
2112;DHT22;1062;52.538;13.400;2024-01-27T06:14:57;5.00;99.90
2112;DHT22;1062;52.538;13.400;2024-01-27T06:17:24;5.00;99.90
2112;DHT22;1062;52.538;13.400;2024-01-27T06:19:49;5.00;99.90
2112;DHT22;1062;52.538;13.400;2024-01-27T06:22:15;5.00;99.90
2112;DHT22;1062;52.538;13.400;2024-01-27T06:24:44;5.00;99.90
2112;DHT22;1062;52.538;13.400;2024-01-27T06:27:10;5.00;99.90
2112;DHT22;1062;52.538;13.400;2024-01-27T06:29:36;5.00;99.90
2112;DHT22;1062;52.538;13.400;2024-01-27T06:32:02;5.00;99.90
2112;DHT22;1062;52.538;13.400;2024-01-27T06:34:28;5.00;99.90
2112;DHT22;1062;52.538;13.400;2024-01-27T06:36:54;5.00;99.90
2112;DHT22;1062;52.538;13.400;2024-01-27T06:39:19;5.00;99.90
2112;DHT22;1062;52.538;13.400;2024-01-27T06:41:47;5.00;99.90
2112;DHT22;1062;52.538;13.400;2024-01-27T06:44:13;5.00;99.90
2112;DHT22;1062;52.538;13.400;2024-01-27T06:46:38;5.00;99.90
2112;DHT22;1062;52.538;13.400;2024-01-27T06:49:04;5.00;99.90
2112;DHT22;1062;52.538;13.400;2024-01-27T06:51:29;5.00;99.90
2112;DHT22;1062;52.538;13.400;2024-01-27T06:53:55;5.00;99.90
2112;DHT22;1062;52.538;13.400;2024-01-27T06:56:20;5.00;99.90
2112;DHT22;1062;52.538;13.400;2024-01-27T06:58:46;5.10;99.90
2112;DHT22;1062;52.538;13.400;2024-01-27T07:01:11;5.10;99.90
2112;DHT22;1062;52.538;13.400;2024-01-27T07:03:37;5.10;99.90
2112;DHT22;1062;52.538;13.400;2024-01-27T07:06:05;5.10;99.90
2112;DHT22;1062;52.538;13.400;2024-01-27T07:08:31;5.10;99.90
2112;DHT22;1062;52.538;13.400;2024-01-27T07:10:58;5.10;99.90
2112;DHT22;1062;52.538;13.400;2024-01-27T07:13:23;5.10;99.90
2112;DHT22;1062;52.538;13.400;2024-01-27T07:15:49;5.10;99.90
2112;DHT22;1062;52.538;13.400;2024-01-27T07:18:14;5.10;99.90
2112;DHT22;1062;52.538;13.400;2024-01-27T07:20:40;5.20;99.90
2112;DHT22;1062;52.538;13.400;2024-01-27T07:23:06;5.20;99.90
2112;DHT22;1062;52.538;13.400;2024-01-27T07:25:32;5.20;99.90
2112;DHT22;1062;52.538;13.400;2024-01-27T07:27:57;5.20;99.90
2112;DHT22;1062;52.538;13.400;2024-01-27T07:30:24;5.20;99.90
2112;DHT22;1062;52.538;13.400;2024-01-27T07:32:50;5.20;99.90
2112;DHT22;1062;52.538;13.400;2024-01-27T07:35:16;5.20;99.90
2112;DHT22;1062;52.538;13.400;2024-01-27T07:37:41;5.20;99.90
2112;DHT22;1062;52.538;13.400;2024-01-27T07:40:07;5.30;99.90
2112;DHT22;1062;52.538;13.400;2024-01-27T07:42:34;5.30;99.90
2112;DHT22;1062;52.538;13.400;2024-01-27T07:44:59;5.30;99.90
2112;DHT22;1062;52.538;13.400;2024-01-27T07:47:25;5.30;99.90
2112;DHT22;1062;52.538;13.400;2024-01-27T07:49:51;5.40;99.90
2112;DHT22;1062;52.538;13.400;2024-01-27T07:52:16;5.30;99.90
2112;DHT22;1062;52.538;13.400;2024-01-27T07:54:42;5.30;99.90
2112;DHT22;1062;52.538;13.400;2024-01-27T07:57:07;5.40;99.90
2112;DHT22;1062;52.538;13.400;2024-01-27T07:59:33;5.70;99.90
2112;DHT22;1062;52.538;13.400;2024-01-27T08:01:59;5.80;99.90
2112;DHT22;1062;52.538;13.400;2024-01-27T08:04:25;5.80;99.90
2112;DHT22;1062;52.538;13.400;2024-01-27T08:06:52;5.90;99.90
2112;DHT22;1062;52.538;13.400;2024-01-27T08:09:18;5.80;99.90
2112;DHT22;1062;52.538;13.400;2024-01-27T08:11:44;5.70;99.90
2112;DHT22;1062;52.538;13.400;2024-01-27T08:14:10;5.80;99.90
2112;DHT22;1062;52.538;13.400;2024-01-27T08:16:36;5.80;99.90
2112;DHT22;1062;52.538;13.400;2024-01-27T08:19:01;5.70;99.90
2112;DHT22;1062;52.538;13.400;2024-01-27T08:21:27;5.80;99.90
2112;DHT22;1062;52.538;13.400;2024-01-27T08:23:54;5.80;99.90
2112;DHT22;1062;52.538;13.400;2024-01-27T08:26:20;5.70;99.90
2112;DHT22;1062;52.538;13.400;2024-01-27T08:28:47;5.70;99.90
2112;DHT22;1062;52.538;13.400;2024-01-27T08:31:12;5.80;99.90
2112;DHT22;1062;52.538;13.400;2024-01-27T08:33:38;5.90;99.90
2112;DHT22;1062;52.538;13.400;2024-01-27T08:36:04;5.90;99.90
2112;DHT22;1062;52.538;13.400;2024-01-27T08:38:29;5.90;99.90
2112;DHT22;1062;52.538;13.400;2024-01-27T08:40:55;5.90;99.90
2112;DHT22;1062;52.538;13.400;2024-01-27T08:43:21;5.90;99.90
2112;DHT22;1062;52.538;13.400;2024-01-27T08:45:47;6.00;99.90
2112;DHT22;1062;52.538;13.400;2024-01-27T08:48:12;6.00;99.90
2112;DHT22;1062;52.538;13.400;2024-01-27T08:50:38;6.00;99.90
2112;DHT22;1062;52.538;13.400;2024-01-27T08:53:04;6.10;99.90
2112;DHT22;1062;52.538;13.400;2024-01-27T08:55:30;6.00;99.90
2112;DHT22;1062;52.538;13.400;2024-01-27T08:57:59;6.10;99.90
2112;DHT22;1062;52.538;13.400;2024-01-27T09:00:24;6.10;99.90
2112;DHT22;1062;52.538;13.400;2024-01-27T09:02:51;6.20;99.90
2112;DHT22;1062;52.538;13.400;2024-01-27T09:05:17;6.30;99.90
2112;DHT22;1062;52.538;13.400;2024-01-27T09:07:43;6.30;99.90
2112;DHT22;1062;52.538;13.400;2024-01-27T09:10:09;6.20;99.90
2112;DHT22;1062;52.538;13.400;2024-01-27T09:12:37;6.30;99.90
2112;DHT22;1062;52.538;13.400;2024-01-27T09:15:03;6.40;99.90
2112;DHT22;1062;52.538;13.400;2024-01-27T09:17:29;6.40;99.90
2112;DHT22;1062;52.538;13.400;2024-01-27T09:19:55;6.50;99.90
2112;DHT22;1062;52.538;13.400;2024-01-27T09:22:20;6.40;99.90
2112;DHT22;1062;52.538;13.400;2024-01-27T09:24:46;6.40;99.90
2112;DHT22;1062;52.538;13.400;2024-01-27T09:27:12;6.50;99.90
2112;DHT22;1062;52.538;13.400;2024-01-27T09:29:37;6.60;99.90
2112;DHT22;1062;52.538;13.400;2024-01-27T09:32:04;6.50;99.90
2112;DHT22;1062;52.538;13.400;2024-01-27T09:34:29;6.60;99.90
2112;DHT22;1062;52.538;13.400;2024-01-27T09:36:55;6.50;99.90
2112;DHT22;1062;52.538;13.400;2024-01-27T09:39:21;6.60;99.90
2112;DHT22;1062;52.538;13.400;2024-01-27T09:41:48;6.70;99.90
2112;DHT22;1062;52.538;13.400;2024-01-27T09:44:17;6.70;99.90
2112;DHT22;1062;52.538;13.400;2024-01-27T09:46:43;6.70;99.90
2112;DHT22;1062;52.538;13.400;2024-01-27T09:49:10;6.60;99.90
2112;DHT22;1062;52.538;13.400;2024-01-27T09:51:38;6.70;99.90
2112;DHT22;1062;52.538;13.400;2024-01-27T09:54:04;6.80;99.90
2112;DHT22;1062;52.538;13.400;2024-01-27T09:56:30;6.90;99.90
2112;DHT22;1062;52.538;13.400;2024-01-27T09:58:57;7.00;99.90
2112;DHT22;1062;52.538;13.400;2024-01-27T10:01:24;6.70;99.90
2112;DHT22;1062;52.538;13.400;2024-01-27T10:03:51;6.80;99.90
2112;DHT22;1062;52.538;13.400;2024-01-27T10:06:17;6.70;99.90
2112;DHT22;1062;52.538;13.400;2024-01-27T10:08:52;6.80;99.90
2112;DHT22;1062;52.538;13.400;2024-01-27T10:11:20;6.90;99.90
2112;DHT22;1062;52.538;13.400;2024-01-27T10:13:57;6.80;99.90
2112;DHT22;1062;52.538;13.400;2024-01-27T10:16:25;6.70;99.90
2112;DHT22;1062;52.538;13.400;2024-01-27T10:19:00;6.80;99.90
2112;DHT22;1062;52.538;13.400;2024-01-27T10:21:26;6.90;99.90
2112;DHT22;1062;52.538;13.400;2024-01-27T10:23:52;6.80;99.90
2112;DHT22;1062;52.538;13.400;2024-01-27T10:26:18;6.80;99.90
2112;DHT22;1062;52.538;13.400;2024-01-27T10:28:53;7.00;99.90
2112;DHT22;1062;52.538;13.400;2024-01-27T10:31:19;7.00;99.90
2112;DHT22;1062;52.538;13.400;2024-01-27T10:33:52;7.00;99.90
2112;DHT22;1062;52.538;13.400;2024-01-27T10:36:27;7.00;99.90
2112;DHT22;1062;52.538;13.400;2024-01-27T10:39:13;7.20;99.90
2112;DHT22;1062;52.538;13.400;2024-01-27T10:41:39;7.10;99.90
2112;DHT22;1062;52.538;13.400;2024-01-27T10:44:05;7.10;99.90
2112;DHT22;1062;52.538;13.400;2024-01-27T10:46:32;7.00;99.90
2112;DHT22;1062;52.538;13.400;2024-01-27T10:48:59;6.80;99.90
2112;DHT22;1062;52.538;13.400;2024-01-27T10:51:31;6.80;99.90
2112;DHT22;1062;52.538;13.400;2024-01-27T10:54:02;6.70;99.90
2112;DHT22;1062;52.538;13.400;2024-01-27T10:56:32;6.80;99.90
2112;DHT22;1062;52.538;13.400;2024-01-27T10:59:01;6.90;99.90
2112;DHT22;1062;52.538;13.400;2024-01-27T11:01:31;6.90;99.90
2112;DHT22;1062;52.538;13.400;2024-01-27T11:04:00;6.90;99.90
2112;DHT22;1062;52.538;13.400;2024-01-27T11:06:27;7.10;99.90
2112;DHT22;1062;52.538;13.400;2024-01-27T11:08:54;7.20;99.90
2112;DHT22;1062;52.538;13.400;2024-01-27T11:11:20;7.20;99.90
2112;DHT22;1062;52.538;13.400;2024-01-27T11:13:46;7.10;99.90
2112;DHT22;1062;52.538;13.400;2024-01-27T11:16:17;7.30;99.90
2112;DHT22;1062;52.538;13.400;2024-01-27T11:18:44;7.20;99.90
2112;DHT22;1062;52.538;13.400;2024-01-27T11:21:16;7.30;99.90
2112;DHT22;1062;52.538;13.400;2024-01-27T11:23:42;7.20;99.90
2112;DHT22;1062;52.538;13.400;2024-01-27T11:26:09;7.20;99.90
2112;DHT22;1062;52.538;13.400;2024-01-27T11:28:36;7.30;99.90
2112;DHT22;1062;52.538;13.400;2024-01-27T11:31:06;7.20;99.90
2112;DHT22;1062;52.538;13.400;2024-01-27T11:33:32;7.10;99.90
2112;DHT22;1062;52.538;13.400;2024-01-27T11:36:05;7.00;99.90
2112;DHT22;1062;52.538;13.400;2024-01-27T11:38:32;7.10;99.90
2112;DHT22;1062;52.538;13.400;2024-01-27T11:41:01;7.00;99.90
2112;DHT22;1062;52.538;13.400;2024-01-27T11:43:27;7.10;99.90
2112;DHT22;1062;52.538;13.400;2024-01-27T11:46:00;7.10;99.90
2112;DHT22;1062;52.538;13.400;2024-01-27T11:48:26;7.00;99.90
2112;DHT22;1062;52.538;13.400;2024-01-27T11:51:07;7.10;99.90
2112;DHT22;1062;52.538;13.400;2024-01-27T11:53:34;7.10;99.90
2112;DHT22;1062;52.538;13.400;2024-01-27T11:55:59;7.10;99.90
2112;DHT22;1062;52.538;13.400;2024-01-27T11:58:27;7.10;99.90
2112;DHT22;1062;52.538;13.400;2024-01-27T12:00:53;7.00;99.90
2112;DHT22;1062;52.538;13.400;2024-01-27T12:03:19;7.00;99.90
2112;DHT22;1062;52.538;13.400;2024-01-27T12:05:44;7.10;99.90
2112;DHT22;1062;52.538;13.400;2024-01-27T12:08:10;7.00;99.90
2112;DHT22;1062;52.538;13.400;2024-01-27T12:10:36;7.10;99.90
2112;DHT22;1062;52.538;13.400;2024-01-27T12:13:02;7.10;99.90
2112;DHT22;1062;52.538;13.400;2024-01-27T12:15:28;7.10;99.90
2112;DHT22;1062;52.538;13.400;2024-01-27T12:17:53;7.20;99.90
2112;DHT22;1062;52.538;13.400;2024-01-27T12:20:19;7.20;99.90
2112;DHT22;1062;52.538;13.400;2024-01-27T12:22:47;7.20;99.90
2112;DHT22;1062;52.538;13.400;2024-01-27T12:25:15;7.10;99.90
2112;DHT22;1062;52.538;13.400;2024-01-27T12:27:40;7.00;99.90
2112;DHT22;1062;52.538;13.400;2024-01-27T12:30:07;7.10;99.90
2112;DHT22;1062;52.538;13.400;2024-01-27T12:32:33;7.00;99.90
2112;DHT22;1062;52.538;13.400;2024-01-27T12:35:04;7.00;99.90
2112;DHT22;1062;52.538;13.400;2024-01-27T12:37:30;7.00;99.90
2112;DHT22;1062;52.538;13.400;2024-01-27T12:39:55;7.10;99.90
2112;DHT22;1062;52.538;13.400;2024-01-27T12:42:21;7.00;99.90
2112;DHT22;1062;52.538;13.400;2024-01-27T12:44:47;7.10;99.90
2112;DHT22;1062;52.538;13.400;2024-01-27T12:47:13;7.20;99.90
2112;DHT22;1062;52.538;13.400;2024-01-27T12:49:39;7.10;99.90
2112;DHT22;1062;52.538;13.400;2024-01-27T12:52:06;7.00;99.90
2112;DHT22;1062;52.538;13.400;2024-01-27T12:54:32;7.10;99.90
2112;DHT22;1062;52.538;13.400;2024-01-27T12:56:58;7.20;99.90
2112;DHT22;1062;52.538;13.400;2024-01-27T12:59:26;6.90;99.90
2112;DHT22;1062;52.538;13.400;2024-01-27T13:01:52;6.90;99.90
2112;DHT22;1062;52.538;13.400;2024-01-27T13:04:18;7.00;99.90
2112;DHT22;1062;52.538;13.400;2024-01-27T13:06:44;7.10;99.90
2112;DHT22;1062;52.538;13.400;2024-01-27T13:09:10;7.40;99.90
2112;DHT22;1062;52.538;13.400;2024-01-27T13:11:39;7.40;99.90
2112;DHT22;1062;52.538;13.400;2024-01-27T13:14:05;7.50;99.90
2112;DHT22;1062;52.538;13.400;2024-01-27T13:16:31;7.30;99.90
2112;DHT22;1062;52.538;13.400;2024-01-27T13:18:56;7.50;99.90
2112;DHT22;1062;52.538;13.400;2024-01-27T13:21:22;7.30;99.90
2112;DHT22;1062;52.538;13.400;2024-01-27T13:23:48;7.30;99.90
2112;DHT22;1062;52.538;13.400;2024-01-27T13:26:13;7.40;99.90
2112;DHT22;1062;52.538;13.400;2024-01-27T13:28:39;7.30;99.90
2112;DHT22;1062;52.538;13.400;2024-01-27T13:31:05;7.40;99.90
2112;DHT22;1062;52.538;13.400;2024-01-27T13:33:32;7.60;99.90
2112;DHT22;1062;52.538;13.400;2024-01-27T13:35:59;7.20;99.90
2112;DHT22;1062;52.538;13.400;2024-01-27T13:38:25;7.30;99.90
2112;DHT22;1062;52.538;13.400;2024-01-27T13:40:51;7.20;99.90
2112;DHT22;1062;52.538;13.400;2024-01-27T13:43:16;7.10;99.90
2112;DHT22;1062;52.538;13.400;2024-01-27T13:45:42;7.00;99.90
2112;DHT22;1062;52.538;13.400;2024-01-27T13:48:08;7.00;99.90
2112;DHT22;1062;52.538;13.400;2024-01-27T13:50:34;7.00;99.90
2112;DHT22;1062;52.538;13.400;2024-01-27T13:53:00;7.10;99.90
2112;DHT22;1062;52.538;13.400;2024-01-27T13:55:26;7.10;99.90
2112;DHT22;1062;52.538;13.400;2024-01-27T13:57:52;7.10;99.90
2112;DHT22;1062;52.538;13.400;2024-01-27T14:00:18;7.10;99.90
2112;DHT22;1062;52.538;13.400;2024-01-27T14:02:44;7.20;99.90
2112;DHT22;1062;52.538;13.400;2024-01-27T14:05:10;7.10;99.90
2112;DHT22;1062;52.538;13.400;2024-01-27T14:07:36;7.00;99.90
2112;DHT22;1062;52.538;13.400;2024-01-27T14:10:02;7.00;99.90
2112;DHT22;1062;52.538;13.400;2024-01-27T14:12:27;6.90;99.90
2112;DHT22;1062;52.538;13.400;2024-01-27T14:15:01;6.80;99.90
2112;DHT22;1062;52.538;13.400;2024-01-27T14:17:27;6.80;99.90
2112;DHT22;1062;52.538;13.400;2024-01-27T14:19:53;6.80;99.90
2112;DHT22;1062;52.538;13.400;2024-01-27T14:22:18;6.90;99.90
2112;DHT22;1062;52.538;13.400;2024-01-27T14:24:44;6.90;99.90
2112;DHT22;1062;52.538;13.400;2024-01-27T14:27:10;6.90;99.90
2112;DHT22;1062;52.538;13.400;2024-01-27T14:29:36;6.90;99.90
2112;DHT22;1062;52.538;13.400;2024-01-27T14:32:03;6.90;99.90
2112;DHT22;1062;52.538;13.400;2024-01-27T14:34:28;6.80;99.90
2112;DHT22;1062;52.538;13.400;2024-01-27T14:36:54;6.80;99.90
2112;DHT22;1062;52.538;13.400;2024-01-27T14:39:20;6.80;99.90
2112;DHT22;1062;52.538;13.400;2024-01-27T14:41:46;6.90;99.90
2112;DHT22;1062;52.538;13.400;2024-01-27T14:44:11;6.80;99.90
2112;DHT22;1062;52.538;13.400;2024-01-27T14:46:37;6.80;99.90
2112;DHT22;1062;52.538;13.400;2024-01-27T14:49:06;6.80;99.90
2112;DHT22;1062;52.538;13.400;2024-01-27T14:51:36;6.80;99.90
2112;DHT22;1062;52.538;13.400;2024-01-27T14:54:02;6.80;99.90
2112;DHT22;1062;52.538;13.400;2024-01-27T14:56:30;6.80;99.90
2112;DHT22;1062;52.538;13.400;2024-01-27T14:58:57;6.80;99.90
2112;DHT22;1062;52.538;13.400;2024-01-27T15:01:22;6.80;99.90
2112;DHT22;1062;52.538;13.400;2024-01-27T15:03:48;6.80;99.90
2112;DHT22;1062;52.538;13.400;2024-01-27T15:06:14;6.80;99.90
2112;DHT22;1062;52.538;13.400;2024-01-27T15:08:40;6.80;99.90
2112;DHT22;1062;52.538;13.400;2024-01-27T15:11:06;6.70;99.90
2112;DHT22;1062;52.538;13.400;2024-01-27T15:13:32;6.70;99.90
2112;DHT22;1062;52.538;13.400;2024-01-27T15:15:58;6.60;99.90
2112;DHT22;1062;52.538;13.400;2024-01-27T15:18:23;6.60;99.90
2112;DHT22;1062;52.538;13.400;2024-01-27T15:20:49;6.70;99.90
2112;DHT22;1062;52.538;13.400;2024-01-27T15:23:15;6.70;99.90
2112;DHT22;1062;52.538;13.400;2024-01-27T15:25:40;6.70;99.90
2112;DHT22;1062;52.538;13.400;2024-01-27T15:28:07;6.80;99.90
2112;DHT22;1062;52.538;13.400;2024-01-27T15:30:33;6.80;99.90
2112;DHT22;1062;52.538;13.400;2024-01-27T15:32:59;6.80;99.90
2112;DHT22;1062;52.538;13.400;2024-01-27T15:35:24;6.90;99.90
2112;DHT22;1062;52.538;13.400;2024-01-27T15:37:50;6.80;99.90
2112;DHT22;1062;52.538;13.400;2024-01-27T15:40:16;6.80;99.90
2112;DHT22;1062;52.538;13.400;2024-01-27T15:42:41;6.80;99.90
2112;DHT22;1062;52.538;13.400;2024-01-27T15:45:07;6.80;99.90
2112;DHT22;1062;52.538;13.400;2024-01-27T15:47:33;6.80;99.90
2112;DHT22;1062;52.538;13.400;2024-01-27T15:49:58;6.90;99.90
2112;DHT22;1062;52.538;13.400;2024-01-27T15:52:31;6.80;99.90
2112;DHT22;1062;52.538;13.400;2024-01-27T15:54:57;6.80;99.90
2112;DHT22;1062;52.538;13.400;2024-01-27T15:57:23;6.70;99.90
2112;DHT22;1062;52.538;13.400;2024-01-27T15:59:49;6.70;99.90